sensor_id;sensor_type;location;lat;lon;timestamp;pressure;altitude;pressure_sealevel;temperature;humidity
73936;BME280;62287;50.858;0.252;2023-01-20T00:00:26;101161.04;;;10.33;41.56
73936;BME280;62287;50.858;0.252;2023-01-20T00:00:59;101160.54;;;10.27;41.57
73936;BME280;62287;50.858;0.252;2023-01-20T00:01:30;101161.31;;;10.31;41.65
73936;BME280;62287;50.858;0.252;2023-01-20T00:02:01;101162.74;;;10.29;41.65
73936;BME280;62287;50.858;0.252;2023-01-20T00:02:33;101161.67;;;10.45;41.59
73936;BME280;62287;50.858;0.252;2023-01-20T00:03:04;101159.17;;;10.88;41.57
73936;BME280;62287;50.858;0.252;2023-01-20T00:03:35;101160.35;;;10.48;41.58
73936;BME280;62287;50.858;0.252;2023-01-20T00:04:06;101159.51;;;10.91;41.49
73936;BME280;62287;50.858;0.252;2023-01-20T00:04:37;101160.84;;;10.62;41.50
73936;BME280;62287;50.858;0.252;2023-01-20T00:05:08;101157.62;;;10.71;41.44
73936;BME280;62287;50.858;0.252;2023-01-20T00:05:39;101162.08;;;11.29;41.47
73936;BME280;62287;50.858;0.252;2023-01-20T00:06:10;101163.08;;;10.54;41.50
73936;BME280;62287;50.858;0.252;2023-01-20T00:06:41;101164.09;;;10.96;41.50
73936;BME280;62287;50.858;0.252;2023-01-20T00:07:12;101163.31;;;11.25;41.45
73936;BME280;62287;50.858;0.252;2023-01-20T00:07:43;101163.66;;;10.90;41.48
73936;BME280;62287;50.858;0.252;2023-01-20T00:08:14;101164.70;;;10.48;41.49
73936;BME280;62287;50.858;0.252;2023-01-20T00:08:49;101165.71;;;10.78;41.49
73936;BME280;62287;50.858;0.252;2023-01-20T00:09:20;101165.95;;;10.54;41.57
73936;BME280;62287;50.858;0.252;2023-01-20T00:09:51;101165.76;;;10.56;41.50
73936;BME280;62287;50.858;0.252;2023-01-20T00:10:22;101164.69;;;10.88;41.48
73936;BME280;62287;50.858;0.252;2023-01-20T00:10:53;101163.29;;;10.37;41.59
73936;BME280;62287;50.858;0.252;2023-01-20T00:11:25;101161.83;;;10.48;41.41
73936;BME280;62287;50.858;0.252;2023-01-20T00:11:57;101160.95;;;10.47;41.49
73936;BME280;62287;50.858;0.252;2023-01-20T00:12:29;101161.09;;;10.42;41.49
73936;BME280;62287;50.858;0.252;2023-01-20T00:13:02;101160.40;;;10.30;41.59
73936;BME280;62287;50.858;0.252;2023-01-20T00:13:33;101160.93;;;11.03;41.68
73936;BME280;62287;50.858;0.252;2023-01-20T00:14:04;101159.88;;;10.26;41.64
73936;BME280;62287;50.858;0.252;2023-01-20T00:14:35;101159.34;;;11.05;41.62
73936;BME280;62287;50.858;0.252;2023-01-20T00:15:07;101160.90;;;10.39;41.55
73936;BME280;62287;50.858;0.252;2023-01-20T00:15:38;101161.18;;;10.35;41.48
73936;BME280;62287;50.858;0.252;2023-01-20T00:16:10;101160.41;;;10.93;41.56
73936;BME280;62287;50.858;0.252;2023-01-20T00:16:41;101161.71;;;10.63;41.52
73936;BME280;62287;50.858;0.252;2023-01-20T00:17:12;101161.99;;;11.04;41.58
73936;BME280;62287;50.858;0.252;2023-01-20T00:17:43;101162.03;;;10.18;41.55
73936;BME280;62287;50.858;0.252;2023-01-20T00:18:14;101162.77;;;10.15;41.70
73936;BME280;62287;50.858;0.252;2023-01-20T00:18:45;101159.81;;;10.62;41.63
73936;BME280;62287;50.858;0.252;2023-01-20T00:19:16;101161.28;;;10.97;41.64
73936;BME280;62287;50.858;0.252;2023-01-20T00:19:47;101161.43;;;10.40;41.51
73936;BME280;62287;50.858;0.252;2023-01-20T00:20:18;101159.17;;;10.70;41.59
73936;BME280;62287;50.858;0.252;2023-01-20T00:20:49;101159.40;;;10.82;41.54
73936;BME280;62287;50.858;0.252;2023-01-20T00:21:20;101159.19;;;11.07;41.49
73936;BME280;62287;50.858;0.252;2023-01-20T00:21:51;101160.02;;;10.52;41.49
73936;BME280;62287;50.858;0.252;2023-01-20T00:22:22;101160.57;;;10.78;41.63
73936;BME280;62287;50.858;0.252;2023-01-20T00:22:53;101158.34;;;10.81;41.59
73936;BME280;62287;50.858;0.252;2023-01-20T00:23:24;101158.73;;;10.97;41.69
73936;BME280;62287;50.858;0.252;2023-01-20T00:23:56;101158.67;;;10.35;41.71
73936;BME280;62287;50.858;0.252;2023-01-20T00:24:27;101158.99;;;10.45;41.71
73936;BME280;62287;50.858;0.252;2023-01-20T00:24:58;101159.71;;;11.18;41.63
73936;BME280;62287;50.858;0.252;2023-01-20T00:25:29;101160.04;;;11.07;41.79
73936;BME280;62287;50.858;0.252;2023-01-20T00:26:03;101160.06;;;10.44;41.79
73936;BME280;62287;50.858;0.252;2023-01-20T00:26:39;101158.01;;;10.92;41.92
73936;BME280;62287;50.858;0.252;2023-01-20T00:27:10;101160.54;;;10.98;41.83
73936;BME280;62287;50.858;0.252;2023-01-20T00:27:41;101159.76;;;10.24;41.83
73936;BME280;62287;50.858;0.252;2023-01-20T00:28:12;101160.08;;;10.23;41.84
73936;BME280;62287;50.858;0.252;2023-01-20T00:28:43;101161.39;;;10.73;41.76
73936;BME280;62287;50.858;0.252;2023-01-20T00:29:14;101159.96;;;10.69;41.71
73936;BME280;62287;50.858;0.252;2023-01-20T00:29:45;101162.02;;;11.02;41.80
73936;BME280;62287;50.858;0.252;2023-01-20T00:30:16;101162.07;;;10.23;41.90
73936;BME280;62287;50.858;0.252;2023-01-20T00:30:47;101163.82;;;10.73;41.82
73936;BME280;62287;50.858;0.252;2023-01-20T00:31:20;101165.48;;;10.36;41.69
73936;BME280;62287;50.858;0.252;2023-01-20T00:31:52;101165.75;;;11.06;41.44
73936;BME280;62287;50.858;0.252;2023-01-20T00:32:23;101166.72;;;11.13;41.36
73936;BME280;62287;50.858;0.252;2023-01-20T00:32:55;101165.02;;;10.38;41.25
73936;BME280;62287;50.858;0.252;2023-01-20T00:33:26;101166.82;;;11.42;41.07
73936;BME280;62287;50.858;0.252;2023-01-20T00:34:02;101167.79;;;10.68;41.03
73936;BME280;62287;50.858;0.252;2023-01-20T00:34:33;101166.56;;;10.62;40.88
73936;BME280;62287;50.858;0.252;2023-01-20T00:35:05;101167.63;;;10.92;40.90
73936;BME280;62287;50.858;0.252;2023-01-20T00:35:37;101169.71;;;10.64;40.90
73936;BME280;62287;50.858;0.252;2023-01-20T00:36:08;101169.69;;;10.44;41.11
73936;BME280;62287;50.858;0.252;2023-01-20T00:36:39;101167.65;;;10.51;41.22
73936;BME280;62287;50.858;0.252;2023-01-20T00:37:10;101172.05;;;10.14;41.24
73936;BME280;62287;50.858;0.252;2023-01-20T00:37:42;101174.87;;;10.43;41.34
73936;BME280;62287;50.858;0.252;2023-01-20T00:38:13;101178.49;;;10.16;41.43
73936;BME280;62287;50.858;0.252;2023-01-20T00:38:44;101177.43;;;10.11;41.43
73936;BME280;62287;50.858;0.252;2023-01-20T00:39:15;101180.17;;;10.13;41.37
73936;BME280;62287;50.858;0.252;2023-01-20T00:39:46;101179.09;;;10.82;41.34
73936;BME280;62287;50.858;0.252;2023-01-20T00:40:17;101180.98;;;10.72;41.43
73936;BME280;62287;50.858;0.252;2023-01-20T00:40:53;101180.79;;;10.58;41.44
73936;BME280;62287;50.858;0.252;2023-01-20T00:41:24;101181.10;;;10.93;41.49
73936;BME280;62287;50.858;0.252;2023-01-20T00:41:55;101180.30;;;10.91;41.43
73936;BME280;62287;50.858;0.252;2023-01-20T00:42:26;101183.37;;;10.80;41.49
73936;BME280;62287;50.858;0.252;2023-01-20T00:42:57;101183.45;;;10.47;41.48
73936;BME280;62287;50.858;0.252;2023-01-20T00:43:28;101182.66;;;10.11;41.59
73936;BME280;62287;50.858;0.252;2023-01-20T00:43:59;101185.07;;;10.62;41.40
73936;BME280;62287;50.858;0.252;2023-01-20T00:44:30;101182.08;;;10.51;41.32
73936;BME280;62287;50.858;0.252;2023-01-20T00:45:01;101181.85;;;10.66;41.40
73936;BME280;62287;50.858;0.252;2023-01-20T00:45:33;101184.07;;;10.87;41.42
73936;BME280;62287;50.858;0.252;2023-01-20T00:46:04;101184.18;;;10.41;41.51
73936;BME280;62287;50.858;0.252;2023-01-20T00:46:36;101182.31;;;10.59;41.38
73936;BME280;62287;50.858;0.252;2023-01-20T00:47:07;101181.49;;;10.44;41.22
73936;BME280;62287;50.858;0.252;2023-01-20T00:47:38;101184.01;;;10.85;41.30
73936;BME280;62287;50.858;0.252;2023-01-20T00:48:09;101183.91;;;10.63;41.37
73936;BME280;62287;50.858;0.252;2023-01-20T00:48:40;101182.40;;;10.94;41.28
73936;BME280;62287;50.858;0.252;2023-01-20T00:49:11;101183.47;;;10.22;41.28
73936;BME280;62287;50.858;0.252;2023-01-20T00:49:42;101182.07;;;10.59;41.21
73936;BME280;62287;50.858;0.252;2023-01-20T00:50:13;101184.70;;;10.88;41.38
73936;BME280;62287;50.858;0.252;2023-01-20T00:50:44;101186.05;;;10.47;41.44
73936;BME280;62287;50.858;0.252;2023-01-20T00:51:15;101182.96;;;10.60;41.19
73936;BME280;62287;50.858;0.252;2023-01-20T00:51:46;101184.68;;;10.62;41.30
73936;BME280;62287;50.858;0.252;2023-01-20T00:52:17;101185.16;;;10.49;41.33
73936;BME280;62287;50.858;0.252;2023-01-20T00:52:48;101186.64;;;10.16;41.29
73936;BME280;62287;50.858;0.252;2023-01-20T00:53:19;101187.17;;;10.47;41.25
73936;BME280;62287;50.858;0.252;2023-01-20T00:53:50;101187.74;;;10.04;41.29
73936;BME280;62287;50.858;0.252;2023-01-20T00:54:21;101187.48;;;10.49;41.22
73936;BME280;62287;50.858;0.252;2023-01-20T00:54:52;101187.40;;;10.34;41.39
73936;BME280;62287;50.858;0.252;2023-01-20T00:55:22;101187.41;;;10.70;41.38
73936;BME280;62287;50.858;0.252;2023-01-20T00:55:58;101188.33;;;10.99;41.29
73936;BME280;62287;50.858;0.252;2023-01-20T00:56:30;101188.55;;;10.49;41.29
73936;BME280;62287;50.858;0.252;2023-01-20T00:57:00;101189.60;;;10.67;41.38
73936;BME280;62287;50.858;0.252;2023-01-20T00:57:31;101189.97;;;10.47;41.34
73936;BME280;62287;50.858;0.252;2023-01-20T00:58:02;101188.66;;;10.85;41.39
73936;BME280;62287;50.858;0.252;2023-01-20T00:58:33;101187.07;;;10.96;41.30
73936;BME280;62287;50.858;0.252;2023-01-20T00:59:04;101187.94;;;10.31;41.42
73936;BME280;62287;50.858;0.252;2023-01-20T00:59:35;101188.36;;;10.29;41.39
73936;BME280;62287;50.858;0.252;2023-01-20T01:00:07;101191.54;;;10.95;41.29
73936;BME280;62287;50.858;0.252;2023-01-20T01:00:39;101190.91;;;10.48;41.26
73936;BME280;62287;50.858;0.252;2023-01-20T01:01:10;101190.08;;;10.86;41.26
73936;BME280;62287;50.858;0.252;2023-01-20T01:01:41;101191.10;;;10.45;41.29
73936;BME280;62287;50.858;0.252;2023-01-20T01:02:12;101191.49;;;10.91;41.30
73936;BME280;62287;50.858;0.252;2023-01-20T01:02:43;101192.32;;;10.75;41.25
73936;BME280;62287;50.858;0.252;2023-01-20T01:03:14;101193.76;;;10.85;41.33
73936;BME280;62287;50.858;0.252;2023-01-20T01:03:46;101193.54;;;10.57;41.27
73936;BME280;62287;50.858;0.252;2023-01-20T01:04:17;101194.28;;;10.76;41.32
73936;BME280;62287;50.858;0.252;2023-01-20T01:04:49;101193.87;;;10.44;41.30
73936;BME280;62287;50.858;0.252;2023-01-20T01:05:20;101194.71;;;10.85;41.27
73936;BME280;62287;50.858;0.252;2023-01-20T01:05:52;101194.14;;;9.95;41.32
73936;BME280;62287;50.858;0.252;2023-01-20T01:06:23;101194.61;;;10.60;41.23
73936;BME280;62287;50.858;0.252;2023-01-20T01:06:54;101195.74;;;10.11;41.25
73936;BME280;62287;50.858;0.252;2023-01-20T01:07:25;101195.28;;;10.73;41.30
73936;BME280;62287;50.858;0.252;2023-01-20T01:07:56;101193.39;;;9.93;41.32
73936;BME280;62287;50.858;0.252;2023-01-20T01:08:27;101196.13;;;10.76;41.37
73936;BME280;62287;50.858;0.252;2023-01-20T01:08:58;101197.12;;;10.12;41.26
73936;BME280;62287;50.858;0.252;2023-01-20T01:09:29;101196.26;;;10.83;41.25
73936;BME280;62287;50.858;0.252;2023-01-20T01:10:06;101195.53;;;10.63;41.12
73936;BME280;62287;50.858;0.252;2023-01-20T01:10:38;101197.26;;;10.51;41.25
73936;BME280;62287;50.858;0.252;2023-01-20T01:11:11;101197.43;;;10.86;41.28
73936;BME280;62287;50.858;0.252;2023-01-20T01:11:42;101198.10;;;10.09;41.34
73936;BME280;62287;50.858;0.252;2023-01-20T01:12:13;101199.21;;;10.97;41.15
73936;BME280;62287;50.858;0.252;2023-01-20T01:12:44;101197.73;;;10.43;41.13
73936;BME280;62287;50.858;0.252;2023-01-20T01:13:15;101197.69;;;10.23;41.20
73936;BME280;62287;50.858;0.252;2023-01-20T01:13:51;101198.44;;;10.09;41.23
73936;BME280;62287;50.858;0.252;2023-01-20T01:14:22;101199.91;;;10.74;41.30
73936;BME280;62287;50.858;0.252;2023-01-20T01:14:53;101201.89;;;10.91;41.22
73936;BME280;62287;50.858;0.252;2023-01-20T01:15:24;101201.65;;;10.37;41.27
73936;BME280;62287;50.858;0.252;2023-01-20T01:16:00;101201.50;;;10.90;41.22
73936;BME280;62287;50.858;0.252;2023-01-20T01:16:31;101201.16;;;10.72;41.29
73936;BME280;62287;50.858;0.252;2023-01-20T01:17:02;101201.44;;;10.81;41.30
73936;BME280;62287;50.858;0.252;2023-01-20T01:17:33;101201.63;;;9.93;41.30
73936;BME280;62287;50.858;0.252;2023-01-20T01:18:04;101202.94;;;10.78;41.30
73936;BME280;62287;50.858;0.252;2023-01-20T01:18:35;101202.56;;;10.81;41.24
73936;BME280;62287;50.858;0.252;2023-01-20T01:19:06;101203.49;;;11.02;41.08
73936;BME280;62287;50.858;0.252;2023-01-20T01:19:37;101204.78;;;10.49;41.12
73936;BME280;62287;50.858;0.252;2023-01-20T01:20:14;101203.61;;;10.53;41.16
73936;BME280;62287;50.858;0.252;2023-01-20T01:20:45;101203.57;;;10.18;41.18
73936;BME280;62287;50.858;0.252;2023-01-20T01:21:16;101204.27;;;10.69;41.29
73936;BME280;62287;50.858;0.252;2023-01-20T01:21:47;101206.07;;;10.78;41.14
73936;BME280;62287;50.858;0.252;2023-01-20T01:22:18;101205.58;;;10.48;41.19
73936;BME280;62287;50.858;0.252;2023-01-20T01:22:49;101206.61;;;10.05;41.09
73936;BME280;62287;50.858;0.252;2023-01-20T01:23:20;101209.14;;;10.42;41.08
73936;BME280;62287;50.858;0.252;2023-01-20T01:23:52;101209.36;;;10.36;41.18
73936;BME280;62287;50.858;0.252;2023-01-20T01:24:23;101210.28;;;10.77;41.07
73936;BME280;62287;50.858;0.252;2023-01-20T01:24:54;101210.44;;;10.22;41.08
73936;BME280;62287;50.858;0.252;2023-01-20T01:25:26;101211.81;;;10.53;41.11
73936;BME280;62287;50.858;0.252;2023-01-20T01:25:57;101209.41;;;10.44;41.01
73936;BME280;62287;50.858;0.252;2023-01-20T01:26:28;101210.86;;;10.85;41.03
73936;BME280;62287;50.858;0.252;2023-01-20T01:26:59;101210.84;;;10.05;41.11
73936;BME280;62287;50.858;0.252;2023-01-20T01:27:30;101210.72;;;10.21;41.05
73936;BME280;62287;50.858;0.252;2023-01-20T01:28:01;101209.95;;;10.13;41.12
73936;BME280;62287;50.858;0.252;2023-01-20T01:28:32;101208.64;;;10.79;41.12
73936;BME280;62287;50.858;0.252;2023-01-20T01:29:08;101209.71;;;10.43;41.08
73936;BME280;62287;50.858;0.252;2023-01-20T01:29:39;101209.13;;;10.29;41.11
73936;BME280;62287;50.858;0.252;2023-01-20T01:30:15;101209.89;;;10.82;41.12
73936;BME280;62287;50.858;0.252;2023-01-20T01:30:46;101211.39;;;10.27;41.13
73936;BME280;62287;50.858;0.252;2023-01-20T01:31:18;101210.32;;;10.27;41.19
73936;BME280;62287;50.858;0.252;2023-01-20T01:31:49;101211.21;;;10.84;41.16
73936;BME280;62287;50.858;0.252;2023-01-20T01:32:20;101211.81;;;10.38;41.19
73936;BME280;62287;50.858;0.252;2023-01-20T01:32:51;101213.79;;;10.44;41.31
73936;BME280;62287;50.858;0.252;2023-01-20T01:33:22;101214.21;;;10.72;41.21
73936;BME280;62287;50.858;0.252;2023-01-20T01:33:53;101214.58;;;10.79;41.11
73936;BME280;62287;50.858;0.252;2023-01-20T01:34:24;101215.47;;;10.42;41.11
73936;BME280;62287;50.858;0.252;2023-01-20T01:34:55;101215.17;;;10.60;41.27
73936;BME280;62287;50.858;0.252;2023-01-20T01:35:26;101217.69;;;10.71;41.25
73936;BME280;62287;50.858;0.252;2023-01-20T01:35:59;101217.74;;;10.14;41.22
73936;BME280;62287;50.858;0.252;2023-01-20T01:36:30;101219.61;;;10.26;41.21
73936;BME280;62287;50.858;0.252;2023-01-20T01:37:01;101218.49;;;9.94;41.12
73936;BME280;62287;50.858;0.252;2023-01-20T01:37:32;101217.45;;;10.41;41.05
73936;BME280;62287;50.858;0.252;2023-01-20T01:38:03;101218.41;;;10.57;41.09
73936;BME280;62287;50.858;0.252;2023-01-20T01:38:35;101217.56;;;11.02;40.83
73936;BME280;62287;50.858;0.252;2023-01-20T01:39:06;101218.03;;;10.24;40.75
73936;BME280;62287;50.858;0.252;2023-01-20T01:39:37;101220.62;;;10.51;40.82
73936;BME280;62287;50.858;0.252;2023-01-20T01:40:10;101222.14;;;11.01;40.79
73936;BME280;62287;50.858;0.252;2023-01-20T01:40:47;101222.38;;;10.65;40.61
73936;BME280;62287;50.858;0.252;2023-01-20T01:41:18;101223.99;;;11.16;40.61
73936;BME280;62287;50.858;0.252;2023-01-20T01:41:49;101224.36;;;10.72;40.55
73936;BME280;62287;50.858;0.252;2023-01-20T01:42:23;101224.54;;;11.09;40.54
73936;BME280;62287;50.858;0.252;2023-01-20T01:42:54;101225.30;;;10.46;40.55
73936;BME280;62287;50.858;0.252;2023-01-20T01:43:27;101226.90;;;11.23;40.47
73936;BME280;62287;50.858;0.252;2023-01-20T01:44:01;101227.06;;;10.18;40.60
73936;BME280;62287;50.858;0.252;2023-01-20T01:44:33;101228.71;;;11.12;40.56
73936;BME280;62287;50.858;0.252;2023-01-20T01:45:27;101229.53;;;10.68;40.52
73936;BME280;62287;50.858;0.252;2023-01-20T01:45:58;101230.06;;;11.05;40.52
73936;BME280;62287;50.858;0.252;2023-01-20T01:46:29;101230.29;;;10.46;40.50
73936;BME280;62287;50.858;0.252;2023-01-20T01:47:00;101232.60;;;10.46;40.37
73936;BME280;62287;50.858;0.252;2023-01-20T01:47:31;101232.95;;;10.50;40.25
73936;BME280;62287;50.858;0.252;2023-01-20T01:48:06;101232.75;;;10.58;40.30
73936;BME280;62287;50.858;0.252;2023-01-20T01:48:41;101232.97;;;11.26;40.36
73936;BME280;62287;50.858;0.252;2023-01-20T01:49:16;101235.44;;;10.92;40.32
73936;BME280;62287;50.858;0.252;2023-01-20T01:49:49;101236.46;;;10.53;40.37
73936;BME280;62287;50.858;0.252;2023-01-20T01:50:24;101236.46;;;10.71;40.39
73936;BME280;62287;50.858;0.252;2023-01-20T01:50:59;101236.90;;;10.24;40.65
73936;BME280;62287;50.858;0.252;2023-01-20T01:51:35;101239.44;;;10.98;40.48
73936;BME280;62287;50.858;0.252;2023-01-20T01:52:08;101241.19;;;10.42;40.40
73936;BME280;62287;50.858;0.252;2023-01-20T01:52:41;101241.21;;;10.74;40.40
73936;BME280;62287;50.858;0.252;2023-01-20T01:53:14;101239.55;;;10.23;40.44
73936;BME280;62287;50.858;0.252;2023-01-20T01:53:47;101239.93;;;10.96;40.48
73936;BME280;62287;50.858;0.252;2023-01-20T01:54:23;101239.01;;;10.65;40.55
73936;BME280;62287;50.858;0.252;2023-01-20T01:54:55;101241.13;;;10.45;40.48
73936;BME280;62287;50.858;0.252;2023-01-20T01:55:29;101240.05;;;10.64;40.46
73936;BME280;62287;50.858;0.252;2023-01-20T01:56:03;101243.25;;;10.69;40.57
73936;BME280;62287;50.858;0.252;2023-01-20T01:56:35;101242.17;;;10.92;40.35
73936;BME280;62287;50.858;0.252;2023-01-20T01:57:07;101242.38;;;11.06;40.49
73936;BME280;62287;50.858;0.252;2023-01-20T01:57:38;101244.80;;;10.91;40.61
73936;BME280;62287;50.858;0.252;2023-01-20T01:58:11;101246.04;;;10.21;40.67
73936;BME280;62287;50.858;0.252;2023-01-20T01:58:46;101243.39;;;10.48;40.73
73936;BME280;62287;50.858;0.252;2023-01-20T01:59:19;101244.27;;;10.80;40.88
73936;BME280;62287;50.858;0.252;2023-01-20T01:59:51;101242.23;;;10.71;40.95
73936;BME280;62287;50.858;0.252;2023-01-20T02:00:22;101242.65;;;10.68;40.95
73936;BME280;62287;50.858;0.252;2023-01-20T02:00:53;101243.62;;;10.72;40.97
73936;BME280;62287;50.858;0.252;2023-01-20T02:01:25;101248.70;;;10.19;40.79
73936;BME280;62287;50.858;0.252;2023-01-20T02:01:57;101246.28;;;10.28;40.84
73936;BME280;62287;50.858;0.252;2023-01-20T02:02:29;101248.18;;;11.00;40.71
73936;BME280;62287;50.858;0.252;2023-01-20T02:03:00;101249.17;;;11.09;40.60
73936;BME280;62287;50.858;0.252;2023-01-20T02:03:37;101247.67;;;10.53;40.82
73936;BME280;62287;50.858;0.252;2023-01-20T02:04:11;101247.83;;;10.78;40.98
73936;BME280;62287;50.858;0.252;2023-01-20T02:04:43;101251.17;;;10.25;41.12
73936;BME280;62287;50.858;0.252;2023-01-20T02:05:14;101249.95;;;10.04;41.20
73936;BME280;62287;50.858;0.252;2023-01-20T02:05:48;101249.43;;;10.24;41.23
73936;BME280;62287;50.858;0.252;2023-01-20T02:06:21;101248.79;;;10.76;41.01
73936;BME280;62287;50.858;0.252;2023-01-20T02:06:56;101249.91;;;10.92;40.83
73936;BME280;62287;50.858;0.252;2023-01-20T02:07:31;101247.60;;;10.95;40.70
73936;BME280;62287;50.858;0.252;2023-01-20T02:08:03;101249.50;;;10.51;40.75
73936;BME280;62287;50.858;0.252;2023-01-20T02:08:35;101249.87;;;10.74;40.78
73936;BME280;62287;50.858;0.252;2023-01-20T02:09:07;101248.53;;;10.74;40.89
73936;BME280;62287;50.858;0.252;2023-01-20T02:09:38;101251.47;;;10.77;40.93
73936;BME280;62287;50.858;0.252;2023-01-20T02:10:10;101251.91;;;10.43;40.85
73936;BME280;62287;50.858;0.252;2023-01-20T02:10:45;101255.95;;;10.63;40.88
73936;BME280;62287;50.858;0.252;2023-01-20T02:11:16;101254.16;;;10.65;40.86
73936;BME280;62287;50.858;0.252;2023-01-20T02:11:51;101253.61;;;10.45;40.75
73936;BME280;62287;50.858;0.252;2023-01-20T02:12:23;101254.01;;;10.82;40.70
73936;BME280;62287;50.858;0.252;2023-01-20T02:12:54;101255.34;;;10.34;40.88
73936;BME280;62287;50.858;0.252;2023-01-20T02:13:25;101256.26;;;10.25;40.87
73936;BME280;62287;50.858;0.252;2023-01-20T02:13:56;101259.19;;;10.32;40.84
73936;BME280;62287;50.858;0.252;2023-01-20T02:14:30;101258.93;;;10.67;40.86
73936;BME280;62287;50.858;0.252;2023-01-20T02:15:02;101254.73;;;10.87;40.70
73936;BME280;62287;50.858;0.252;2023-01-20T02:15:38;101256.56;;;10.65;40.50
73936;BME280;62287;50.858;0.252;2023-01-20T02:16:20;101256.20;;;9.98;40.75
73936;BME280;62287;50.858;0.252;2023-01-20T02:16:58;101259.60;;;9.79;40.87
73936;BME280;62287;50.858;0.252;2023-01-20T02:17:33;101257.27;;;10.76;40.81
73936;BME280;62287;50.858;0.252;2023-01-20T02:18:15;101259.11;;;10.42;40.75
73936;BME280;62287;50.858;0.252;2023-01-20T02:18:59;101254.37;;;10.82;40.71
73936;BME280;62287;50.858;0.252;2023-01-20T02:22:24;101257.32;;;10.21;41.05
73936;BME280;62287;50.858;0.252;2023-01-20T02:23:04;101255.62;;;10.60;40.87
73936;BME280;62287;50.858;0.252;2023-01-20T02:23:55;101255.95;;;10.76;40.85
73936;BME280;62287;50.858;0.252;2023-01-20T02:26:36;101259.98;;;10.69;40.88
73936;BME280;62287;50.858;0.252;2023-01-20T02:27:15;101263.99;;;10.67;40.89
73936;BME280;62287;50.858;0.252;2023-01-20T02:28:08;101264.15;;;10.76;40.82
73936;BME280;62287;50.858;0.252;2023-01-20T02:30:02;101264.64;;;10.55;40.94
73936;BME280;62287;50.858;0.252;2023-01-20T02:30:53;101267.78;;;10.11;40.98
73936;BME280;62287;50.858;0.252;2023-01-20T02:31:51;101271.60;;;10.41;40.90
73936;BME280;62287;50.858;0.252;2023-01-20T02:32:36;101273.04;;;10.16;40.88
73936;BME280;62287;50.858;0.252;2023-01-20T02:33:12;101272.57;;;10.19;40.84
73936;BME280;62287;50.858;0.252;2023-01-20T02:33:51;101272.66;;;10.71;40.81
73936;BME280;62287;50.858;0.252;2023-01-20T02:34:28;101270.96;;;10.55;40.83
73936;BME280;62287;50.858;0.252;2023-01-20T02:35:05;101272.94;;;10.51;41.01
73936;BME280;62287;50.858;0.252;2023-01-20T02:35:43;101272.96;;;10.47;41.07
73936;BME280;62287;50.858;0.252;2023-01-20T02:36:23;101271.25;;;10.39;41.10
73936;BME280;62287;50.858;0.252;2023-01-20T02:37:00;101272.07;;;10.04;41.13
73936;BME280;62287;50.858;0.252;2023-01-20T02:37:37;101271.70;;;10.33;41.08
73936;BME280;62287;50.858;0.252;2023-01-20T02:38:15;101271.21;;;10.52;41.00
73936;BME280;62287;50.858;0.252;2023-01-20T02:38:55;101271.42;;;10.97;40.91
73936;BME280;62287;50.858;0.252;2023-01-20T02:39:31;101271.75;;;10.45;41.01
73936;BME280;62287;50.858;0.252;2023-01-20T02:40:15;101272.66;;;10.54;41.00
73936;BME280;62287;50.858;0.252;2023-01-20T02:40:54;101272.08;;;10.53;40.96
73936;BME280;62287;50.858;0.252;2023-01-20T02:41:34;101269.85;;;10.47;41.03
73936;BME280;62287;50.858;0.252;2023-01-20T02:42:09;101270.52;;;10.04;41.07
73936;BME280;62287;50.858;0.252;2023-01-20T02:42:44;101271.43;;;10.41;41.08
73936;BME280;62287;50.858;0.252;2023-01-20T02:43:19;101270.53;;;10.39;41.09
73936;BME280;62287;50.858;0.252;2023-01-20T02:43:58;101270.70;;;10.45;41.11
73936;BME280;62287;50.858;0.252;2023-01-20T02:44:37;101276.07;;;10.59;40.93
73936;BME280;62287;50.858;0.252;2023-01-20T02:45:14;101273.13;;;10.44;40.93
73936;BME280;62287;50.858;0.252;2023-01-20T02:45:51;101274.06;;;10.83;40.93
73936;BME280;62287;50.858;0.252;2023-01-20T02:46:31;101270.63;;;10.85;40.91
73936;BME280;62287;50.858;0.252;2023-01-20T02:47:08;101272.55;;;10.96;41.09
73936;BME280;62287;50.858;0.252;2023-01-20T02:47:44;101275.54;;;10.95;40.95
73936;BME280;62287;50.858;0.252;2023-01-20T02:48:21;101276.17;;;10.87;41.11
73936;BME280;62287;50.858;0.252;2023-01-20T02:49:02;101278.00;;;11.01;41.27
73936;BME280;62287;50.858;0.252;2023-01-20T02:49:41;101280.79;;;11.35;41.26
73936;BME280;62287;50.858;0.252;2023-01-20T02:50:20;101281.14;;;11.42;41.16
73936;BME280;62287;50.858;0.252;2023-01-20T02:50:57;101283.54;;;11.63;41.26
73936;BME280;62287;50.858;0.252;2023-01-20T02:51:36;101281.77;;;12.02;41.13
73936;BME280;62287;50.858;0.252;2023-01-20T02:52:13;101280.88;;;11.64;41.14
73936;BME280;62287;50.858;0.252;2023-01-20T02:52:50;101277.25;;;12.11;41.00
73936;BME280;62287;50.858;0.252;2023-01-20T02:53:25;101279.02;;;11.83;41.14
73936;BME280;62287;50.858;0.252;2023-01-20T02:54:01;101283.12;;;11.83;41.17
73936;BME280;62287;50.858;0.252;2023-01-20T02:54:36;101282.98;;;12.49;41.04
73936;BME280;62287;50.858;0.252;2023-01-20T02:55:11;101285.15;;;11.68;41.03
73936;BME280;62287;50.858;0.252;2023-01-20T02:55:47;101286.59;;;11.80;40.97
73936;BME280;62287;50.858;0.252;2023-01-20T02:56:20;101286.09;;;12.18;40.98
73936;BME280;62287;50.858;0.252;2023-01-20T02:56:54;101287.58;;;11.95;40.84
73936;BME280;62287;50.858;0.252;2023-01-20T02:57:31;101290.83;;;11.99;40.87
73936;BME280;62287;50.858;0.252;2023-01-20T02:58:07;101295.16;;;11.81;40.82
73936;BME280;62287;50.858;0.252;2023-01-20T02:58:45;101298.34;;;12.22;40.78
73936;BME280;62287;50.858;0.252;2023-01-20T02:59:21;101298.74;;;12.16;40.77
73936;BME280;62287;50.858;0.252;2023-01-20T02:59:57;101296.41;;;12.38;40.72